Terminal Aerodrome Forecast
Issued by NWS

Current Version | Previous Version | Text Only | Print | Product List | Glossary Off
Versions: 1 2 3 4 5 6 7 8 9 10 11 12 13 14 15 16

000
FTUS41 KILN 162340
TAFLUK
TAF
KLUK 162340Z 1700/1724 00000KT P6SM SKC
     FM170700 00000KT 2SM BR SKC
     FM171300 19006KT P6SM SKC=

USA.gov is the U.S. government's official web portal to all federal, state and local government web resources and services.